Home > Products > Valid Products > TAF

000
FTUS43 KGRR 302100 AAA
TAFGRR
TAF AMD
KGRR 302112Z 3021/3118 21012G20KT P6SM VCTS SCT025CB BKN040
     FM310030 22007KT 3SM BR VCTS OVC025CB
     FM310400 22005KT 3SM BR OVC015
     FM311100 24004KT 5SM BR BKN015
     FM311700 24007KT P6SM BKN040=



000
FTUS43 KGRR 302000 AAA
TAFMKG
TAF AMD
KMKG 302029Z 3020/3118 21015G22KT P6SM VCTS BKN035CB
     FM310100 22005KT 5SM BR OVC025
     FM310500 22006KT 3SM BR OVC015
     FM310800 22004KT 5SM BR BKN015=



000
FTUS43 KGRR 301700
TAFAZO
TAF
KAZO 301735Z 3018/3118 19013G21KT P6SM VCTS SCT025CB BKN040
      TEMPO 3018/3019 BKN025CB
     FM302245 22011G17KT 5SM -TSRA BR OVC025CB
     FM310200 22005KT 3SM BR VCTS OVC015CB
     FM310600 22004KT 2SM BR OVC008
     FM311200 23004KT 3SM BR OVC015
     FM311600 24006KT 5SM BR BKN025=



000
FTUS43 KGRR 301700
TAFLAN
TAF
KLAN 301735Z 3018/3118 21013G21KT P6SM VCTS SCT025CB BKN040
      TEMPO 3018/3020 BKN025CB
     FM302100 22014G22KT 5SM -TSRA OVC040CB
     FM302315 22012KT 5SM -TSRA BR OVC025CB
     FM310300 22006KT 3SM BR OVC015
     FM311100 24005KT 2SM BR BKN015
     FM311500 25006KT P6SM BKN025=



000
FTUS43 KGRR 301700
TAFGRR
TAF
KGRR 301735Z 3018/3118 21012G20KT P6SM VCTS SCT015CB BKN040
      TEMPO 3018/3019 BKN015CB
     FM302100 22013G20KT 5SM -TSRA BR OVC025CB
     FM310030 22007KT 3SM BR VCTS OVC025CB
     FM310400 22005KT 3SM BR OVC015
     FM311100 24004KT 5SM BR BKN015
     FM311700 24007KT P6SM BKN040=



000
FTUS43 KGRR 301700
TAFJXN
TAF
KJXN 301735Z 3018/3118 21011G19KT P6SM VCTS SCT025CB BKN040
      TEMPO 3018/3019 BKN025CB
     FM302315 22007KT 5SM -TSRA OVC040CB
     FM310200 22007KT 5SM BR VCTS OVC025CB
     FM310500 22005KT 3SM BR OVC015
     FM311400 24006KT 5SM BR BKN015
     FM311700 25006KT P6SM BKN040=



000
FTUS43 KGRR 301700
TAFMKG
TAF
KMKG 301735Z 3018/3118 20014G24KT P6SM VCTS SCT025CB BKN040
      TEMPO 3018/3020 BKN025CB
     FM302000 21011G18KT P6SM VCTS BKN025CB
     FM310100 22005KT 5SM BR OVC025
     FM310500 22006KT 3SM BR OVC015
     FM310800 22004KT 5SM BR BKN015=



000
FTUS43 KGRR 301700
TAFBTL
TAF
KBTL 301735Z 3018/3118 20014G22KT P6SM VCTS SCT015CB BKN040
      TEMPO 3018/3019 BKN015CB
     FM302245 22012G18KT 5SM -TSRA BR OVC025CB
     FM310200 22007KT 3SM BR VCTS OVC025CB
     FM310500 22006KT 3SM BR OVC007
     FM311500 24006KT 5SM BR BKN025=



000
FTUS43 KGRR 301600 AAA
TAFJXN
TAF AMD
KJXN 301609Z 3016/3112 21008G16KT P6SM VCTS SCT025CB BKN050
     FM310000 23011KT P6SM BKN035
     FM310500 23007KT 4SM BR OVC015
     FM310800 23005KT 2SM BR OVC003
     FM311000 23004KT 1 1/2SM BR OVC003=



000
FTUS43 KGRR 301600 AAB
TAFBTL
TAF AMD
KBTL 301607Z 3016/3112 20014G20KT P6SM BKN015
      TEMPO 3016/3019 SCT015 BKN050
     FM301900 22013G23KT P6SM VCTS SCT025CB BKN050
     FM310000 23011KT P6SM BKN035
     FM310500 23007KT 4SM BR OVC015
     FM310800 23005KT 2SM BR OVC003
     FM311000 23004KT 1 1/2SM BR OVC003=



000
FTUS43 KGRR 301600 AAD
TAFGRR
TAF AMD
KGRR 301605Z 3016/3112 20011KT P6SM SCT015 BKN035
      TEMPO 3016/3018 BKN015
     FM301800 22014G24KT P6SM VCTS SCT025CB BKN050
     FM310000 23011KT P6SM BKN035
     FM310500 23007KT 4SM BR OVC015
     FM310800 23005KT 2SM BR OVC003
     FM311000 23004KT 1 1/2SM BR OVC003=



000
FTUS43 KGRR 301500 AAB
TAFAZO
TAF AMD
KAZO 301545Z 3016/3112 20011KT P6SM BKN015
      TEMPO 3016/3018 SCT015 BKN040
     FM301800 22012G22KT P6SM VCTS SCT025CB BKN050
     FM310000 23011KT P6SM BKN035
     FM310500 23007KT 4SM BR OVC015
     FM310800 23005KT 2SM BR OVC003
     FM311000 23004KT 1 1/2SM BR OVC003=



000
FTUS43 KGRR 301400 AAC
TAFGRR
TAF AMD
KGRR 301441Z 3015/3112 20011KT P6SM SCT015 BKN030
      TEMPO 3015/3016 BKN015
     FM301800 22014G24KT P6SM VCTS SCT025CB BKN050
     FM310000 23011KT P6SM BKN035
     FM310500 23007KT 4SM BR OVC015
     FM310800 23005KT 2SM BR OVC003
     FM311000 23004KT 1 1/2SM BR OVC003=



000
FTUS43 KGRR 301400 AAB
TAFMKG
TAF AMD
KMKG 301438Z 3015/3112 19017G23KT P6SM SCT015 BKN120
      TEMPO 3015/3017 BKN015
     FM301800 20012G18KT P6SM VCTS SCT025CB BKN040
     FM302200 22012KT P6SM BKN035
     FM310300 23006KT P6SM BKN025
     FM310600 22005KT 4SM BR BKN007
     FM311000 22004KT 1 1/2SM BR OVC001=



000
FTUS43 KGRR 301300 AAB
TAFLAN
TAF AMD
KLAN 301346Z 3014/3112 19011KT P6SM -SHRA OVC070
     FM301800 22015G25KT P6SM VCTS SCT025CB BKN050
     FM310000 23011KT P6SM BKN035
     FM310500 23007KT 4SM BR OVC015
     FM310800 23005KT 2SM BR OVC003
     FM311000 23004KT 1 1/2SM BR OVC003=



000
FTUS43 KGRR 301300 AAB
TAFGRR
TAF AMD
KGRR 301343Z 3014/3112 19011KT P6SM BKN100
     FM301600 22015G25KT P6SM VCTS SCT025CB BKN050
     FM310000 23011KT P6SM BKN035
     FM310500 23007KT 4SM BR OVC015
     FM310800 23005KT 2SM BR OVC003
     FM311000 23004KT 1 1/2SM BR OVC003=



000
FTUS43 KGRR 301200 AAA
TAFMKG
TAF AMD
KMKG 301256Z 3013/3112 20015G25KT P6SM SCT040 BKN070
      TEMPO 3013/3015 BKN020
     FM301800 21014KT P6SM VCTS SCT025CB BKN040
     FM302200 22012KT P6SM BKN035
     FM310300 23006KT P6SM BKN025
     FM310600 22005KT 4SM BR BKN007
     FM311000 22004KT 1 1/2SM BR OVC001=



000
FTUS43 KGRR 301200 AAA
TAFAZO
TAF AMD
KAZO 301225Z 3012/3112 19009KT 4SM SHRA BR VCTS BKN050CB OVC110
     FM301310 20012KT P6SM BKN050
     FM301600 21016G26KT P6SM VCTS SCT025CB BKN050
     FM310000 23011KT P6SM BKN035
     FM310500 23007KT 4SM BR OVC015
     FM310800 23005KT 2SM BR OVC003
     FM311000 23004KT 1 1/2SM BR OVC003=



000
FTUS43 KGRR 301200 AAA
TAFBTL
TAF AMD
KBTL 301225Z 3012/3112 18010KT P6SM VCSH SCT050 BKN120
      TEMPO 3012/3013 5SM SHRA
     FM301600 21016G26KT P6SM VCTS SCT025CB BKN050
     FM310000 23011KT P6SM BKN035
     FM310500 23007KT 4SM BR OVC015
     FM310800 23005KT 2SM BR OVC003
     FM311000 23004KT 1 1/2SM BR OVC003=



000
FTUS43 KGRR 301200 AAA
TAFLAN
TAF AMD
KLAN 301215Z 3012/3112 16009KT P6SM VCSH SCT050 BKN120
     FM301255 18012KT 2SM SHRA BR VCTS OVC035CB
     FM301400 19009KT 5SM BR VCSH SCT050 BKN120
     FM301600 21016G26KT P6SM VCTS SCT025CB BKN050
     FM310000 23011KT P6SM BKN035
     FM310500 23007KT 4SM BR OVC015
     FM310800 23005KT 2SM BR OVC003
     FM311000 23004KT 1 1/2SM BR OVC003=



000
FTUS43 KGRR 301200 AAA
TAFGRR
TAF AMD
KGRR 301212Z 3012/3112 19012KT 2SM SHRA BR VCTS OVC035CB
     FM301300 21016G26KT P6SM VCTS SCT025CB BKN050
     FM310000 23011KT P6SM BKN035
     FM310500 23007KT 4SM BR OVC015
     FM310800 23005KT 2SM BR OVC003
     FM311000 23004KT 1 1/2SM BR OVC003=



000
FTUS43 KGRR 301100
TAFBTL
TAF
KBTL 301130Z 3012/3112 18010KT P6SM VCSH SCT050 BKN120
     FM301600 21016G26KT P6SM VCTS SCT025CB BKN050
     FM310000 23011KT P6SM BKN035
     FM310500 23007KT 4SM BR OVC015
     FM310800 23005KT 2SM BR OVC003
     FM311000 23004KT 1 1/2SM BR OVC003=



000
FTUS43 KGRR 301100
TAFJXN
TAF
KJXN 301130Z 3012/3112 19006KT P6SM VCSH SCT050 BKN120
     FM301600 21016G26KT P6SM VCTS SCT025CB BKN050
     FM310000 23011KT P6SM BKN035
     FM310500 23007KT 4SM BR OVC015
     FM310800 23005KT 2SM BR OVC003
     FM311000 23004KT 1 1/2SM BR OVC003=



000
FTUS43 KGRR 301100
TAFLAN
TAF
KLAN 301130Z 3012/3112 16009KT P6SM VCSH SCT050 BKN120
     FM301600 21016G26KT P6SM VCTS SCT025CB BKN050
     FM310000 23011KT P6SM BKN035
     FM310500 23007KT 4SM BR OVC015
     FM310800 23005KT 2SM BR OVC003
     FM311000 23004KT 1 1/2SM BR OVC003=



000
FTUS43 KGRR 301100
TAFMKG
TAF
KMKG 301130Z 3012/3112 19015G21KT P6SM VCSH SCT060 OVC090
     FM301300 20015G25KT P6SM SCT040 BKN070
     FM301800 21014KT P6SM VCTS SCT025CB BKN040
     FM302200 22012KT P6SM BKN035
     FM310300 23006KT P6SM BKN025
     FM310600 22005KT 4SM BR BKN007
     FM311000 22004KT 1 1/2SM BR OVC001=



000
FTUS43 KGRR 301100
TAFAZO
TAF
KAZO 301130Z 3012/3112 18009KT P6SM VCSH SCT050 OVC110
     FM301600 21016G26KT P6SM VCTS SCT025CB BKN050
     FM310000 23011KT P6SM BKN035
     FM310500 23007KT 4SM BR OVC015
     FM310800 23005KT 2SM BR OVC003
     FM311000 23004KT 1 1/2SM BR OVC003=



000
FTUS43 KGRR 301100
TAFGRR
TAF
KGRR 301130Z 3012/3112 19012KT P6SM VCSH FEW060 BKN100 OVC200
     FM301600 21016G26KT P6SM VCTS SCT025CB BKN050
     FM310000 23011KT P6SM BKN035
     FM310500 23007KT 4SM BR OVC015
     FM310800 23005KT 2SM BR OVC003
     FM311000 23004KT 1 1/2SM BR OVC003=



000
FTUS43 KGRR 300500
TAFBTL
TAF
KBTL 300540Z 3006/3106 20008KT P6SM VCSH SCT060 BKN100
      TEMPO 3010/3014 4SM -SHRA BR BKN040
     FM301400 20014KT P6SM SCT040 BKN070
     FM301800 22014KT P6SM VCTS SCT025CB BKN040
     FM310100 24006KT P6SM BKN025=



000
FTUS43 KGRR 300500
TAFJXN
TAF
KJXN 300540Z 3006/3106 14010KT P6SM VCSH SCT060 BKN100
      TEMPO 3011/3015 4SM -SHRA BR BKN040
     FM301500 20014KT P6SM SCT040 BKN070
     FM301900 22014KT P6SM VCTS SCT025CB BKN040
     FM310100 24006KT P6SM BKN025=



000
FTUS43 KGRR 300500
TAFGRR
TAF
KGRR 300540Z 3006/3106 18011KT P6SM VCSH SCT060 BKN090
      TEMPO 3010/3014 4SM -SHRA BR BKN040
     FM301400 20015KT P6SM SCT040 BKN070
     FM301800 22014KT P6SM VCTS SCT025CB BKN040
     FM310100 24006KT P6SM BKN025=



000
FTUS43 KGRR 300500
TAFAZO
TAF
KAZO 300540Z 3006/3106 16008KT P6SM VCSH SCT060 BKN100
      TEMPO 3010/3014 4SM -SHRA BR BKN040
     FM301400 20014KT P6SM SCT040 BKN070
     FM301800 22014KT P6SM VCTS SCT025CB BKN040
     FM310100 24006KT P6SM BKN025=



000
FTUS43 KGRR 300500
TAFLAN
TAF
KLAN 300540Z 3006/3106 16010KT P6SM VCSH SCT060 BKN100
      TEMPO 3011/3015 4SM -SHRA BR BKN040
     FM301500 20014KT P6SM SCT040 BKN070
     FM301900 22014KT P6SM VCTS SCT025CB BKN040
     FM310100 24006KT P6SM BKN025=



000
FTUS43 KGRR 300500
TAFMKG
TAF
KMKG 300540Z 3006/3106 18011KT P6SM VCSH SCT060 BKN090
      TEMPO 3009/3013 4SM -SHRA BR BKN040
     FM301300 20015KT P6SM SCT040 BKN070
     FM301800 21014KT P6SM VCTS SCT025CB BKN040
     FM310100 23006KT P6SM BKN025=



000
FTUS43 KGRR 300400 AAA
TAFGRR
TAF AMD
KGRR 300417Z 3004/3024 17008KT P6SM VCSH SCT060 BKN120
      TEMPO 3005/3006 24015KT 4SM -SHRA BR BKN040
     FM301000 17011KT P6SM VCTS BKN070CB
     FM301200 20012G21KT P6SM BKN035
     FM301800 21012G23KT P6SM VCTS BKN040CB=



000
FTUS43 KGRR 292300
TAFGRR
TAF
KGRR 292339Z 3000/3024 15008KT P6SM VCSH BKN120
     FM300600 17011KT P6SM VCTS BKN070CB
     FM301200 20012G21KT P6SM BKN035
     FM301800 21012G23KT P6SM VCTS BKN040CB=



000
FTUS43 KGRR 292300
TAFJXN
TAF
KJXN 292339Z 3000/3024 15008KT P6SM VCSH BKN120
     FM300600 18010KT P6SM VCTS BKN070CB
     FM301200 20012G21KT P6SM BKN035
     FM301800 21012G23KT P6SM VCTS BKN040CB=



000
FTUS43 KGRR 292300
TAFMKG
TAF
KMKG 292339Z 3000/3024 15008KT P6SM VCSH BKN120
     FM300600 17011KT P6SM VCTS BKN070CB
     FM301200 20012G20KT P6SM BKN035
     FM301800 21012G22KT P6SM VCTS BKN040CB=



000
FTUS43 KGRR 292300
TAFAZO
TAF
KAZO 292339Z 3000/3024 16008KT P6SM VCSH BKN090
     FM300600 18010KT P6SM VCTS BKN070CB
     FM301200 20012G21KT P6SM BKN035
     FM301800 21012G23KT P6SM VCTS BKN040CB=



000
FTUS43 KGRR 292300
TAFBTL
TAF
KBTL 292339Z 3000/3024 16008KT P6SM VCSH BKN090
     FM300600 18010KT P6SM VCTS BKN070CB
     FM301200 20012G21KT P6SM BKN035
     FM301800 21012G23KT P6SM VCTS BKN040CB=



000
FTUS43 KGRR 292300
TAFLAN
TAF
KLAN 292339Z 3000/3024 16008KT P6SM VCSH BKN120
     FM300600 18010KT P6SM VCTS BKN070CB
     FM301200 20012G21KT P6SM BKN035
     FM301800 21012G23KT P6SM VCTS BKN040CB=



000
FTUS43 KGRR 291900 AAA
TAFAZO
TAF AMD
KAZO 291935Z 2920/3018 16007KT P6SM BKN045
      TEMPO 2920/2921 3SM -TSRA BR BKN025CB
     FM300100 16004KT P6SM VCTS OVC040CB
     FM300700 18005KT P6SM -SHRA OVC035
     FM301200 20010KT P6SM BKN035
     FM301500 20011KT P6SM VCTS BKN035CB=



000
FTUS43 KGRR 291900 AAA
TAFGRR
TAF AMD
KGRR 291931Z 2920/3018 15006KT P6SM VCTS BKN045CB
     FM292100 14006KT P6SM BKN045
     FM300300 16006KT P6SM -SHRA OVC035
     FM301200 19012KT P6SM OVC035
     FM301400 21014KT P6SM VCTS OVC035CB=



000
FTUS43 KGRR 291700
TAFLAN
TAF
KLAN 291738Z 2918/3018 16010KT P6SM BKN080
     FM292145 16006KT P6SM BKN040
     FM300400 17007KT P6SM -SHRA OVC040
     FM301100 20012KT P6SM BKN040
     FM301500 22012KT P6SM VCTS BKN040CB=



000
FTUS43 KGRR 291700
TAFMKG
TAF
KMKG 291738Z 2918/3018 16012KT 4SM -SHRA VCTS OVC025CB
     FM291830 16010KT P6SM BKN040
     FM300800 18011KT P6SM OVC025
     FM301200 20013KT P6SM VCTS OVC025CB=



000
FTUS43 KGRR 291700
TAFJXN
TAF
KJXN 291738Z 2918/3018 16008KT P6SM BKN080
     FM292230 14006KT P6SM BKN040
     FM300300 16006KT P6SM -SHRA OVC040
     FM301000 19006KT P6SM BKN040
     FM301500 21012KT P6SM VCTS BKN040CB=



000
FTUS43 KGRR 291700
TAFAZO
TAF
KAZO 291738Z 2918/3018 17008KT P6SM -SHRA OVC045
     FM291930 16006KT P6SM BKN045
     FM300100 16004KT P6SM VCTS OVC040CB
     FM300700 18005KT P6SM -SHRA OVC035
     FM301200 20010KT P6SM BKN035
     FM301500 20011KT P6SM VCTS BKN035CB=



000
FTUS43 KGRR 291700
TAFGRR
TAF
KGRR 291738Z 2918/3018 16010KT P6SM BKN045
     FM292200 14006KT P6SM BKN045
     FM300300 16006KT P6SM -SHRA OVC035
     FM301200 19012KT P6SM OVC035
     FM301400 21014KT P6SM VCTS OVC035CB=



000
FTUS43 KGRR 291700
TAFBTL
TAF
KBTL 291738Z 2918/3018 16009KT P6SM -SHRA OVC045
     FM291845 16009KT P6SM BKN045
     FM292200 16005KT P6SM BKN045
     FM300200 16008KT P6SM VCTS OVC040CB
     FM300600 18007KT P6SM -SHRA OVC040
     FM301200 20012KT P6SM BKN040
     FM301500 22013KT P6SM VCTS BKN040CB=



000
FTUS43 KGRR 291600 AAB
TAFMKG
TAF AMD
KMKG 291644Z 2917/3012 14011KT P6SM -SHRA OVC050
     FM291730 14011KT 2SM TSRA OVC025CB
     FM291830 16012KT P6SM VCTS BKN040CB
     FM292100 17012KT P6SM BKN050 OVC140
     FM300800 18011KT P6SM OVC025=



000
FTUS43 KGRR 291400 AAA
TAFBTL
TAF AMD
KBTL 291423Z 2914/3012 15009KT P6SM -SHRA OVC050
     FM291700 16010KT P6SM VCTS OVC035CB
     FM292100 19010KT P6SM BKN050 OVC140
     FM300800 16008KT P6SM OVC025=



000
FTUS43 KGRR 291400 AAA
TAFAZO
TAF AMD
KAZO 291421Z 2914/3012 15007KT P6SM -SHRA OVC050
     FM291600 16008KT P6SM VCTS OVC035CB
     FM292100 19010KT P6SM BKN050 OVC140
     FM300800 16008KT P6SM OVC025=



000
FTUS43 KGRR 291400 AAA
TAFGRR
TAF AMD
KGRR 291419Z 2914/3012 15010KT P6SM -SHRA OVC040
     FM291630 16010KT P6SM VCTS OVC040CB
     FM292100 16010KT P6SM BKN050 OVC140
     FM300800 14008KT P6SM OVC025=



000
FTUS43 KGRR 291400 AAA
TAFMKG
TAF AMD
KMKG 291415Z 2914/3012 14011KT P6SM -SHRA OVC050
     FM291700 14011KT P6SM -SHRA VCTS OVC035CB
     FM292100 17012KT P6SM BKN050 OVC140
     FM300800 18011KT P6SM OVC025=



000
FTUS43 KGRR 291100
TAFGRR
TAF
KGRR 291135Z 2912/3012 12006KT P6SM VCSH SCT150 BKN220
     FM291500 16011KT 5SM -SHRA BR OVC035
      TEMPO 2915/2918 2SM SHRA BR OVC025
     FM292100 16010KT P6SM BKN050 OVC140
     FM300800 14008KT P6SM OVC025=



000
FTUS43 KGRR 291100
TAFLAN
TAF
KLAN 291135Z 2912/3012 14007KT P6SM SCT070 BKN120
     FM291500 17011KT P6SM VCSH OVC050
     FM291800 20008KT 5SM -SHRA BR OVC035
     FM300100 15007KT P6SM SCT035 BKN080=



000
FTUS43 KGRR 291100
TAFAZO
TAF
KAZO 291135Z 2912/3012 14003KT P6SM SCT070 BKN100
     FM291500 16011KT 5SM -SHRA BR OVC035
      TEMPO 2915/2918 2SM SHRA BR OVC025
     FM292100 19010KT P6SM BKN050 OVC140
     FM300800 16008KT P6SM OVC025=



000
FTUS43 KGRR 291100
TAFJXN
TAF
KJXN 291135Z 2912/3012 15009KT P6SM SCT070 BKN120
     FM291500 17011KT P6SM VCSH OVC050
     FM291800 20008KT 5SM -SHRA BR OVC035
     FM300100 15007KT P6SM SCT035 BKN080=



000
FTUS43 KGRR 291100
TAFBTL
TAF
KBTL 291135Z 2912/3012 13006KT P6SM SCT070 BKN100
     FM291500 16011KT 5SM -SHRA BR OVC035
      TEMPO 2915/2918 2SM SHRA BR OVC025
     FM292100 19010KT P6SM BKN050 OVC140
     FM300800 16008KT P6SM OVC025=



000
FTUS43 KGRR 291100
TAFMKG
TAF
KMKG 291135Z 2912/3012 13009KT P6SM OVC045
      TEMPO 2912/2915 5SM -SHRA
     FM291500 14011KT 5SM -SHRA BR OVC035
      TEMPO 2915/2918 2SM SHRA BR OVC025
     FM292100 17012KT P6SM BKN050 OVC140
     FM300800 18011KT P6SM OVC025=



000
FTUS43 KGRR 290500
TAFAZO
TAF
KAZO 290540Z 2906/3006 10004KT P6SM BKN150
     FM291600 16010KT P6SM SCT035 BKN150
     FM300200 16008KT 6SM HZ VCSH BKN035=



000
FTUS43 KGRR 290500
TAFJXN
TAF
KJXN 290540Z 2906/3006 14006KT P6SM BKN150
     FM291600 16010KT P6SM SCT035 BKN150
     FM300300 16008KT 6SM HZ VCSH BKN035=



000
FTUS43 KGRR 290500
TAFGRR
TAF
KGRR 290540Z 2906/3006 10005KT P6SM BKN150
     FM291100 13009KT P6SM VCSH OVC070
     FM291600 15010KT P6SM SCT035 BKN150
     FM300200 16008KT 6SM HZ VCSH BKN035=



000
FTUS43 KGRR 290500
TAFLAN
TAF
KLAN 290540Z 2906/3006 09004KT P6SM BKN150
     FM291600 16010KT P6SM SCT035 BKN150
     FM300300 16008KT 6SM HZ VCSH BKN035=



000
FTUS43 KGRR 290500
TAFBTL
TAF
KBTL 290540Z 2906/3006 12004KT P6SM BKN150
     FM291600 16010KT P6SM SCT035 BKN150
     FM300200 16008KT 6SM HZ VCSH BKN035=



000
FTUS43 KGRR 290500
TAFMKG
TAF
KMKG 290540Z 2906/3006 12005KT P6SM BKN120
     FM291000 13009KT P6SM -SHRA OVC050
     FM291600 17010KT P6SM SCT035 BKN150
     FM300200 16008KT 6SM HZ VCSH BKN035=



000
FTUS43 KGRR 282300
TAFJXN
TAF
KJXN 282340Z 2900/2924 11003KT P6SM BKN200
     FM291200 14006KT P6SM -SHRA OVC045
     FM291800 16010KT P6SM SCT035 BKN150=



000
FTUS43 KGRR 282300
TAFMKG
TAF
KMKG 282340Z 2900/2924 10005KT P6SM BKN150
     FM291000 13009KT 6SM -SHRA BR OVC070
     FM291800 16010KT P6SM SCT035 BKN150=



000
FTUS43 KGRR 282300
TAFGRR
TAF
KGRR 282340Z 2900/2924 08006KT P6SM BKN150
     FM291000 11007KT 6SM -SHRA BR OVC070
     FM291800 16010KT P6SM SCT035 BKN150=



000
FTUS43 KGRR 282300
TAFLAN
TAF
KLAN 282340Z 2900/2924 11004KT P6SM BKN200
     FM291200 14007KT P6SM -SHRA OVC040
     FM291800 16010KT P6SM SCT035 BKN150=



000
FTUS43 KGRR 282300
TAFAZO
TAF
KAZO 282340Z 2900/2924 10004KT P6SM BKN150
     FM290900 14004KT 5SM -SHRA BR OVC035
     FM291800 16010KT P6SM SCT035 BKN150=



000
FTUS43 KGRR 282300
TAFBTL
TAF
KBTL 282340Z 2900/2924 10004KT P6SM BKN150
     FM290900 14004KT 5SM -SHRA BR OVC035
     FM291800 16010KT P6SM SCT035 BKN150=



000
FTUS43 KGRR 281700
TAFBTL
TAF
KBTL 281730Z 2818/2918 08006KT P6SM SCT250
     FM291000 14006KT P6SM -SHRA OVC040=



000
FTUS43 KGRR 281700
TAFLAN
TAF
KLAN 281730Z 2818/2918 06005KT P6SM SCT250
     FM291200 14007KT P6SM -SHRA OVC040=



000
FTUS43 KGRR 281700
TAFGRR
TAF
KGRR 281730Z 2818/2918 08006KT P6SM BKN250
     FM290900 12006KT P6SM BKN040
     FM291200 13007KT P6SM -SHRA OVC040
     FM291500 14011KT P6SM -SHRA OVC035=



000
FTUS43 KGRR 281700
TAFJXN
TAF
KJXN 281730Z 2818/2918 07004KT P6SM SCT250
     FM291200 14006KT P6SM -SHRA OVC045=



000
FTUS43 KGRR 281700
TAFMKG
TAF
KMKG 281730Z 2818/2918 12007KT P6SM BKN250
     FM290800 14006KT P6SM -SHRA OVC040
     FM291300 14011KT 5SM -SHRA BR OVC040
     FM291700 15010KT P6SM VCTS OVC035CB=



000
FTUS43 KGRR 281700
TAFAZO
TAF
KAZO 281730Z 2818/2918 08004KT P6SM SCT250
     FM290900 14004KT 5SM -SHRA BR OVC035=



000
FTUS43 KGRR 281400 AAC
TAFAZO
TAF AMD
KAZO 281441Z 2815/2912 05004KT P6SM BKN015
      TEMPO 2815/2816 BKN025
     FM281600 07005KT P6SM SCT150 BKN250
     FM290800 14008KT P6SM OVC090=



000
FTUS43 KGRR 281400 AAA
TAFBTL
TAF AMD
KBTL 281440Z 2815/2912 07005KT P6SM SCT025
      TEMPO 2815/2816 BKN025
     FM281600 09008KT P6SM SCT150 BKN250
     FM290800 15008KT P6SM OVC090=



000
FTUS43 KGRR 281300 AAB
TAFAZO
TAF AMD
KAZO 281343Z 2814/2912 05004KT P6SM BKN015
     FM281430 07005KT P6SM SCT150 BKN250
     FM290800 14008KT P6SM OVC090=



000
FTUS43 KGRR 281100 AAA
TAFAZO
TAF AMD
KAZO 281157Z 2812/2912 00000KT P6SM BKN006
     FM281400 07005KT P6SM SCT150 BKN250
     FM290800 14008KT P6SM OVC090=



000
FTUS43 KGRR 281100
TAFMKG
TAF
KMKG 281129Z 2812/2912 11006KT P6SM SCT150 BKN250
     FM281900 22008KT P6SM SCT150 BKN250
     FM290100 07005KT P6SM BKN140 OVC200
     FM290600 12004KT P6SM VCSH OVC080=



000
FTUS43 KGRR 281100
TAFGRR
TAF
KGRR 281129Z 2812/2912 08008KT P6SM SCT150 BKN250
     FM290800 13006KT P6SM OVC090=



000
FTUS43 KGRR 281100
TAFLAN
TAF
KLAN 281129Z 2812/2912 00000KT P6SM BKN040
     FM281400 06004KT P6SM SCT050 SCT250
     FM290900 12005KT P6SM OVC100=



000
FTUS43 KGRR 281100
TAFBTL
TAF
KBTL 281129Z 2812/2912 06003KT P6SM BKN011
     FM281400 09008KT P6SM SCT150 BKN250
     FM290800 15008KT P6SM OVC090=



000
FTUS43 KGRR 281100
TAFAZO
TAF
KAZO 281129Z 2812/2912 08008KT P6SM SCT150 BKN250
     FM290800 14008KT P6SM OVC090=



000
FTUS43 KGRR 281100
TAFJXN
TAF
KJXN 281129Z 2812/2912 00000KT P6SM OVC020
     FM281500 09008KT P6SM SCT150 BKN250
     FM290800 15008KT P6SM OVC090=



000
FTUS43 KGRR 280800 AAA
TAFJXN
TAF AMD
KJXN 280847Z 2809/2906 00000KT P6SM BKN014 BKN035
     FM281200 07004KT P6SM SCT040=



000
FTUS43 KGRR 280500
TAFMKG
TAF
KMKG 280540Z 2806/2906 30006KT P6SM SCT040=



000
FTUS43 KGRR 280500
TAFJXN
TAF
KJXN 280540Z 2806/2906 00000KT P6SM BKN040
     FM281200 07004KT P6SM SCT040=



000
FTUS43 KGRR 280500
TAFBTL
TAF
KBTL 280540Z 2806/2906 05004KT P6SM SCT040=



000
FTUS43 KGRR 280500
TAFLAN
TAF
KLAN 280540Z 2806/2906 03006KT P6SM BKN040
     FM281200 05004KT P6SM SCT040=



000
FTUS43 KGRR 280500
TAFAZO
TAF
KAZO 280540Z 2806/2906 05004KT P6SM SCT040=



000
FTUS43 KGRR 280500
TAFGRR
TAF
KGRR 280540Z 2806/2906 05004KT P6SM SCT040=



000
FTUS43 KGRR 272300
TAFBTL
TAF
KBTL 272336Z 2800/2824 36003KT P6SM BKN250=



000
FTUS43 KGRR 272300
TAFAZO
TAF
KAZO 272336Z 2800/2824 36003KT P6SM BKN250=



000
FTUS43 KGRR 272300
TAFLAN
TAF
KLAN 272336Z 2800/2824 03003KT P6SM SCT040 BKN250=



000
FTUS43 KGRR 272300
TAFJXN
TAF
KJXN 272336Z 2800/2824 03003KT P6SM SCT040 BKN250=



000
FTUS43 KGRR 272300
TAFMKG
TAF
KMKG 272336Z 2800/2824 31006KT P6SM BKN250=



000
FTUS43 KGRR 272300
TAFGRR
TAF
KGRR 272336Z 2800/2824 03004KT P6SM SCT040 BKN250=



    US Dept of Commerce
    National Oceanic and Atmospheric Administration
    National Weather Service
    1325 East West Highway
    Silver Spring, MD 20910
    Page Author: NWS Internet Services Team
Disclaimer
Information Quality
Credits
Glossary
Privacy Policy
Freedom of Information Act (FOIA)
About Us
Career Opportunities